createdAt,value
2022-09-10T00:01:20.443Z,100487.09
2022-09-10T00:03:49.861Z,100495.94
2022-09-10T00:06:18.734Z,100493.34
2022-09-10T00:08:46.980Z,100489.63
2022-09-10T00:11:15.079Z,100494.75
2022-09-10T00:13:43.388Z,100494.59
2022-09-10T00:16:13.814Z,100501.56
2022-09-10T00:18:41.660Z,100492.72
2022-09-10T00:21:12.457Z,100502.75
2022-09-10T00:23:39.850Z,100497.63
2022-09-10T00:26:16.162Z,100495.06
2022-09-10T00:28:43.585Z,100492.81
2022-09-10T00:31:11.756Z,100489.94
2022-09-10T00:33:39.690Z,100486.69
2022-09-10T00:36:24.229Z,100484.31
2022-09-10T00:38:53.538Z,100487.16
2022-09-10T00:41:22.529Z,100483.63
2022-09-10T00:44:37.385Z,100489.22
2022-09-10T00:47:14.321Z,100487.66
2022-09-10T00:49:47.201Z,100482.53
2022-09-10T00:52:14.347Z,100494.97
2022-09-10T00:54:43.524Z,100502.09
2022-09-10T00:57:20.151Z,100503.09
2022-09-10T00:59:53.254Z,100502.41
2022-09-10T01:02:21.593Z,100506.13
2022-09-10T01:04:49.295Z,100509.00
2022-09-10T01:07:18.866Z,100507.63
2022-09-10T01:09:46.027Z,100513.38
2022-09-10T01:13:03.492Z,100505.69
2022-09-10T01:16:00.229Z,100513.00
2022-09-10T01:18:39.714Z,100520.81
2022-09-10T01:21:35.406Z,100507.41
2022-09-10T01:24:23.230Z,100510.47
2022-09-10T01:27:24.489Z,100519.63
2022-09-10T01:30:14.720Z,100518.63
2022-09-10T01:33:15.378Z,100522.34
2022-09-10T01:35:51.217Z,100527.66
2022-09-10T01:38:27.592Z,100523.06
2022-09-10T01:40:56.085Z,100516.56
2022-09-10T01:43:24.972Z,100521.16
2022-09-10T01:46:41.475Z,100527.13
2022-09-10T01:49:46.328Z,100520.50
2022-09-10T01:52:36.259Z,100522.59
2022-09-10T01:55:29.992Z,100514.28
2022-09-10T01:58:17.164Z,100510.41
2022-09-10T02:01:18.128Z,100506.13
2022-09-10T02:03:48.293Z,100509.88
2022-09-10T02:06:20.203Z,100503.75
2022-09-10T02:08:51.720Z,100509.00
2022-09-10T02:11:18.714Z,100507.16
2022-09-10T02:13:48.989Z,100506.13
2022-09-10T02:16:37.746Z,100509.00
2022-09-10T02:19:05.349Z,100511.03
2022-09-10T02:21:33.631Z,100512.91
2022-09-10T02:24:12.946Z,100515.44
2022-09-10T02:26:44.186Z,100513.19
2022-09-10T02:29:15.855Z,100510.88
2022-09-10T02:31:45.097Z,100513.75
2022-09-10T02:34:15.820Z,100511.91
2022-09-10T02:36:45.508Z,100510.34
2022-09-10T02:39:14.112Z,100521.03
2022-09-10T02:41:41.681Z,100520.19
2022-09-10T02:44:08.816Z,100515.63
2022-09-10T02:46:38.229Z,100515.63
2022-09-10T02:49:05.154Z,100507.63
2022-09-10T02:51:37.092Z,100521.03
2022-09-10T02:54:04.757Z,100515.63
2022-09-10T02:56:32.478Z,100522.75
2022-09-10T02:58:59.503Z,100517.31
2022-09-10T03:01:28.560Z,100525.59
2022-09-10T03:04:01.215Z,100516.78
2022-09-10T03:06:29.829Z,100515.25
2022-09-10T03:08:58.252Z,100512.53
2022-09-10T03:11:27.538Z,100516.94
2022-09-10T03:13:55.693Z,100508.78
2022-09-10T03:16:24.322Z,100512.66
2022-09-10T03:18:52.231Z,100512.84
2022-09-10T03:21:24.993Z,100514.38
2022-09-10T03:23:53.803Z,100504.84
2022-09-10T03:26:25.534Z,100511.28
2022-09-10T03:28:54.086Z,100503.41
2022-09-10T03:31:23.575Z,100500.88
2022-09-10T03:33:51.193Z,100509.84
2022-09-10T03:36:18.326Z,100506.44
2022-09-10T03:38:47.846Z,100507.47
2022-09-10T03:41:15.249Z,100507.47
2022-09-10T03:43:42.434Z,100503.19
2022-09-10T03:46:11.998Z,100512.03
2022-09-10T03:48:43.246Z,100503.88
2022-09-10T03:51:10.839Z,100503.03
2022-09-10T03:53:38.750Z,100505.75
2022-09-10T03:56:07.059Z,100504.88
2022-09-10T03:58:35.833Z,100506.44
2022-09-10T04:01:04.786Z,100504.59
2022-09-10T04:03:35.384Z,100497.75
2022-09-10T04:06:02.295Z,100514.91
2022-09-10T04:08:29.303Z,100508.06
2022-09-10T04:11:02.827Z,100519.81
2022-09-10T04:13:31.630Z,100521.66
2022-09-10T04:16:02.704Z,100519.09
2022-09-10T04:18:32.090Z,100524.81
2022-09-10T04:20:59.063Z,100524.00
2022-09-10T04:23:26.090Z,100524.81
2022-09-10T04:25:53.373Z,100532.13
2022-09-10T04:28:20.316Z,100531.44
2022-09-10T04:30:50.940Z,100529.03
2022-09-10T04:33:18.360Z,100535.00
2022-09-10T04:35:45.689Z,100532.28
2022-09-10T04:38:13.604Z,100535.84
2022-09-10T04:40:44.185Z,100541.13
2022-09-10T04:43:11.688Z,100540.09
2022-09-10T04:45:41.426Z,100547.41
2022-09-10T04:48:08.706Z,100544.69
2022-09-10T04:50:36.389Z,100544.53
2022-09-10T04:53:07.946Z,100548.41
2022-09-10T04:55:39.817Z,100545.00
2022-09-10T04:58:07.254Z,100546.88
2022-09-10T05:00:34.455Z,100551.44
2022-09-10T05:03:01.683Z,100552.78
2022-09-10T05:05:29.049Z,100556.31
2022-09-10T05:07:55.998Z,100551.91
2022-09-10T05:10:23.492Z,100554.16
2022-09-10T05:12:50.819Z,100552.31
2022-09-10T05:15:17.943Z,100553.69
2022-09-10T05:17:47.965Z,100554.41
2022-09-10T05:20:15.930Z,100553.94
2022-09-10T05:22:49.282Z,100548.34
2022-09-10T05:25:17.279Z,100560.06
2022-09-10T05:27:44.215Z,100556.66
2022-09-10T05:30:17.756Z,100553.63
2022-09-10T05:32:45.474Z,100552.75
2022-09-10T05:35:13.895Z,100548.34
2022-09-10T05:37:43.694Z,100552.75
2022-09-10T05:40:16.556Z,100558.03
2022-09-10T05:42:44.312Z,100548.75
2022-09-10T05:45:11.380Z,100549.56
2022-09-10T05:47:38.566Z,100544.88
2022-09-10T05:50:07.316Z,100551.03
2022-09-10T05:52:35.008Z,100555.41
2022-09-10T05:55:06.382Z,100556.13
2022-09-10T05:57:33.653Z,100551.69
2022-09-10T06:00:02.097Z,100553.41
2022-09-10T06:02:30.504Z,100555.66
2022-09-10T06:05:00.566Z,100549.28
2022-09-10T06:07:29.517Z,100543.00
2022-09-10T06:09:57.693Z,100552.38
2022-09-10T06:12:36.901Z,100556.81
2022-09-10T06:15:04.542Z,100553.59
2022-09-10T06:17:31.844Z,100563.88
2022-09-10T06:19:58.935Z,100561.69
2022-09-10T06:22:25.884Z,100560.66
2022-09-10T06:24:53.755Z,100563.94
2022-09-10T06:27:23.263Z,100565.13
2022-09-10T06:29:51.476Z,100565.19
2022-09-10T06:32:19.139Z,100560.84
2022-09-10T06:34:47.224Z,100558.19
2022-09-10T06:37:14.577Z,100563.69
2022-09-10T06:39:42.033Z,100573.03
2022-09-10T06:42:08.978Z,100561.00
2022-09-10T06:44:57.533Z,100563.72
2022-09-10T06:50:21.611Z,100570.91
2022-09-10T06:52:50.516Z,100572.00
2022-09-10T06:55:23.404Z,100564.56
2022-09-10T06:57:50.724Z,100565.78
2022-09-10T07:00:18.036Z,100570.75
2022-09-10T07:02:52.246Z,100570.94
2022-09-10T07:05:19.378Z,100564.84
2022-09-10T07:07:47.214Z,100570.84
2022-09-10T07:10:14.882Z,100569.84
2022-09-10T07:12:42.140Z,100571.25
2022-09-10T07:15:09.921Z,100565.47
2022-09-10T07:17:37.241Z,100576.06
2022-09-10T07:20:05.055Z,100572.66
2022-09-10T07:22:43.719Z,100576.44
2022-09-10T07:25:12.797Z,100575.44
2022-09-10T07:27:57.272Z,100585.31
2022-09-10T07:30:25.347Z,100580.72
2022-09-10T07:32:52.709Z,100585.50
2022-09-10T07:35:23.923Z,100591.28
2022-09-10T07:37:51.072Z,100590.59
2022-09-10T07:40:19.881Z,100589.09
2022-09-10T07:42:47.015Z,100584.84
2022-09-10T07:45:16.076Z,100588.25
2022-09-10T07:47:44.634Z,100591.16
2022-09-10T07:50:12.159Z,100598.28
2022-09-10T07:52:39.242Z,100597.13
2022-09-10T07:55:06.850Z,100596.25
2022-09-10T07:57:44.022Z,100604.41
2022-09-10T08:00:18.407Z,100606.81
2022-09-10T08:02:52.365Z,100603.06
2022-09-10T08:05:22.467Z,100606.13
2022-09-10T08:07:57.167Z,100608.53
2022-09-10T08:10:26.787Z,100611.06
2022-09-10T08:12:53.726Z,100606.13
2022-09-10T08:15:25.341Z,100610.38
2022-09-10T08:17:52.760Z,100614.31
2022-09-10T08:20:22.421Z,100616.34
2022-09-10T08:22:49.707Z,100617.38
2022-09-10T08:25:16.723Z,100626.25
2022-09-10T08:27:43.670Z,100631.50
2022-09-10T08:30:11.621Z,100638.16
2022-09-10T08:32:39.066Z,100640.91
2022-09-10T08:35:07.505Z,100639.38
2022-09-10T08:37:34.566Z,100642.78
2022-09-10T08:40:03.224Z,100638.84
2022-09-10T08:42:51.512Z,100644.31
2022-09-10T08:45:29.262Z,100650.47
2022-09-10T08:48:05.928Z,100655.91
2022-09-10T08:50:40.400Z,100652.31
2022-09-10T08:53:32.664Z,100654.91
2022-09-10T08:56:05.917Z,100648.25
2022-09-10T08:59:22.441Z,100655.91
2022-09-10T09:02:01.245Z,100653.50
2022-09-10T09:04:43.017Z,100659.84
2022-09-10T09:07:16.943Z,100665.13
2022-09-10T09:09:52.067Z,100664.25
2022-09-10T09:12:48.746Z,100669.72
2022-09-10T09:15:20.576Z,100666.13
2022-09-10T09:18:21.524Z,100663.09
2022-09-10T09:20:58.389Z,100664.63
2022-09-10T09:24:11.558Z,100674.66
2022-09-10T09:26:41.981Z,100675.00
2022-09-10T09:29:25.583Z,100673.31
2022-09-10T09:31:58.778Z,100673.47
2022-09-10T09:34:39.658Z,100666.84
2022-09-10T09:37:24.093Z,100670.41
2022-09-10T09:40:06.191Z,100675.88
2022-09-10T09:42:56.590Z,100672.81
2022-09-10T09:45:44.010Z,100665.84
2022-09-10T09:48:17.206Z,100663.94
2022-09-10T09:50:49.440Z,100665.84
2022-09-10T09:53:27.977Z,100670.41
2022-09-10T09:56:05.214Z,100672.97
2022-09-10T09:58:35.660Z,100667.50
2022-09-10T10:01:18.100Z,100662.81
2022-09-10T10:04:02.847Z,100658.00
2022-09-10T10:06:45.837Z,100651.44
2022-09-10T10:09:27.803Z,100659.16
2022-09-10T10:12:02.190Z,100648.25
2022-09-10T10:14:32.159Z,100655.56
2022-09-10T10:17:01.209Z,100647.38
2022-09-10T10:19:38.896Z,100656.75
2022-09-10T10:22:14.888Z,100662.22
2022-09-10T10:24:43.154Z,100657.94
2022-09-10T10:27:38.334Z,100655.53
2022-09-10T10:30:17.282Z,100664.00
2022-09-10T10:32:56.083Z,100656.75
2022-09-10T10:35:46.844Z,100654.94
2022-09-10T10:38:31.709Z,100653.97
2022-09-10T10:41:47.363Z,100657.19
2022-09-10T10:44:53.078Z,100653.53
2022-09-10T10:47:46.824Z,100655.91
2022-09-10T10:50:21.675Z,100648.53
2022-09-10T10:53:15.612Z,100649.03
2022-09-10T10:55:53.579Z,100654.44
2022-09-10T10:58:55.951Z,100651.94
2022-09-10T11:01:30.343Z,100640.84
2022-09-10T11:04:27.174Z,100641.56
2022-09-10T11:07:30.083Z,100638.91
2022-09-10T11:10:11.661Z,100642.53
2022-09-10T11:12:56.224Z,100639.22
2022-09-10T11:16:02.693Z,100633.06
2022-09-10T11:19:16.329Z,100635.78
2022-09-10T11:21:54.783Z,100634.09
2022-09-10T11:24:41.463Z,100628.59
2022-09-10T11:27:46.437Z,100629.91
2022-09-10T11:30:19.227Z,100631.63
2022-09-10T11:33:07.496Z,100628.63
2022-09-10T11:35:55.817Z,100616.88
2022-09-10T11:38:44.950Z,100629.63
2022-09-10T11:41:26.715Z,100615.31
2022-09-10T11:44:41.999Z,100625.13
2022-09-10T11:47:21.280Z,100620.59
2022-09-10T11:50:16.479Z,100626.19
2022-09-10T11:52:43.596Z,100619.84
2022-09-10T11:55:15.921Z,100625.84
2022-09-10T11:58:12.623Z,100621.44
2022-09-10T12:00:56.824Z,100604.06
2022-09-10T12:03:58.166Z,100607.09
2022-09-10T12:06:49.439Z,100614.28
2022-09-10T12:09:43.917Z,100601.31
2022-09-10T12:12:18.180Z,100608.44
2022-09-10T12:14:45.237Z,100608.25
2022-09-10T12:17:24.353Z,100603.59
2022-09-10T12:19:56.339Z,100617.13
2022-09-10T12:22:35.710Z,100628.09
2022-09-10T12:25:08.317Z,100615.44
2022-09-10T12:27:54.047Z,100617.03
2022-09-10T12:30:36.044Z,100626.34
2022-09-10T12:33:24.753Z,100616.28
2022-09-10T12:35:52.737Z,100604.50
2022-09-10T12:38:56.451Z,100615.09
2022-09-10T12:41:23.374Z,100612.88
2022-09-10T12:43:54.839Z,100612.31
2022-09-10T12:46:25.667Z,100597.94
2022-09-10T12:48:55.652Z,100612.13
2022-09-10T12:51:46.273Z,100611.00
2022-09-10T12:54:49.859Z,100601.44
2022-09-10T12:57:27.936Z,100609.13
2022-09-10T13:00:22.274Z,100614.38
2022-09-10T13:03:09.185Z,100613.94
2022-09-10T13:05:45.554Z,100614.16
2022-09-10T13:08:15.635Z,100614.53
2022-09-10T13:11:05.809Z,100598.81
2022-09-10T13:14:00.996Z,100608.22
2022-09-10T13:16:28.335Z,100617.41
2022-09-10T13:19:21.813Z,100616.31
2022-09-10T13:21:48.653Z,100615.53
2022-09-10T13:24:38.453Z,100614.31
2022-09-10T13:27:17.486Z,100612.84
2022-09-10T13:29:50.001Z,100617.06
2022-09-10T13:32:31.699Z,100610.63
2022-09-10T13:35:22.245Z,100607.81
2022-09-10T13:37:59.285Z,100619.25
2022-09-10T13:40:51.613Z,100616.94
2022-09-10T13:43:37.255Z,100617.16
2022-09-10T13:46:12.360Z,100609.50
2022-09-10T13:48:57.880Z,100606.16
2022-09-10T13:51:46.190Z,100606.81
2022-09-10T13:54:39.028Z,100616.13
2022-09-10T13:57:19.395Z,100611.25
2022-09-10T13:59:50.747Z,100612.53
2022-09-10T14:02:21.404Z,100598.94
2022-09-10T14:04:48.411Z,100606.94
2022-09-10T14:07:28.826Z,100603.31
2022-09-10T14:10:01.782Z,100600.75
2022-09-10T14:12:33.737Z,100599.22
2022-09-10T14:15:06.555Z,100600.47
2022-09-10T14:17:43.180Z,100601.75
2022-09-10T14:20:28.928Z,100615.50
2022-09-10T14:23:01.826Z,100608.88
2022-09-10T14:25:36.520Z,100608.66
2022-09-10T14:28:15.770Z,100614.31
2022-09-10T14:30:44.293Z,100608.94
2022-09-10T14:33:37.123Z,100624.50
2022-09-10T14:36:36.745Z,100617.31
2022-09-10T14:39:20.757Z,100612.84
2022-09-10T14:41:49.055Z,100621.03
2022-09-10T14:44:22.273Z,100620.34
2022-09-10T14:46:57.519Z,100613.59
2022-09-10T14:49:31.609Z,100617.81
2022-09-10T14:51:59.887Z,100615.06
2022-09-10T14:54:28.808Z,100624.34
2022-09-10T14:57:04.132Z,100621.72
2022-09-10T14:59:38.816Z,100614.00
2022-09-10T15:02:17.601Z,100628.06
2022-09-10T15:04:45.130Z,100623.34
2022-09-10T15:07:13.512Z,100621.66
2022-09-10T15:09:41.040Z,100626.78
2022-09-10T15:12:15.309Z,100623.41
2022-09-10T15:14:42.302Z,100621.53
2022-09-10T15:17:13.880Z,100625.88
2022-09-10T15:19:40.793Z,100620.59
2022-09-10T15:22:08.005Z,100626.53
2022-09-10T15:24:47.431Z,100631.09
2022-09-10T15:27:22.651Z,100632.84
2022-09-10T15:29:49.812Z,100637.56
2022-09-10T15:32:18.205Z,100643.34
2022-09-10T15:34:45.150Z,100640.34
2022-09-10T15:37:12.551Z,100631.38
2022-09-10T15:39:39.499Z,100654.84
2022-09-10T15:42:07.233Z,100647.75
2022-09-10T15:44:34.258Z,100650.97
2022-09-10T15:47:02.012Z,100658.28
2022-09-10T15:49:29.798Z,100654.44
2022-09-10T15:51:57.242Z,100659.13
2022-09-10T15:54:24.377Z,100653.97
2022-09-10T15:56:51.547Z,100659.56
2022-09-10T15:59:18.425Z,100666.06
2022-09-10T16:01:45.429Z,100666.03
2022-09-10T16:04:12.384Z,100666.81
2022-09-10T16:06:40.509Z,100662.13
2022-09-10T16:09:13.374Z,100661.91
2022-09-10T16:11:42.344Z,100673.50
2022-09-10T16:14:13.103Z,100664.66
2022-09-10T16:16:40.985Z,100667.41
2022-09-10T16:19:10.317Z,100664.34
2022-09-10T16:21:39.240Z,100663.84
2022-09-10T16:24:07.691Z,100668.47
2022-09-10T16:26:41.244Z,100679.22
2022-09-10T16:29:17.493Z,100673.78
2022-09-10T16:31:48.085Z,100671.41
2022-09-10T16:34:18.832Z,100675.34
2022-09-10T16:36:51.539Z,100677.41
2022-09-10T16:39:19.665Z,100683.88
2022-09-10T16:41:49.214Z,100683.47
2022-09-10T16:44:18.209Z,100691.50
2022-09-10T16:46:46.973Z,100689.25
2022-09-10T16:49:18.133Z,100692.00
2022-09-10T16:51:47.092Z,100691.47
2022-09-10T16:54:15.874Z,100708.19
2022-09-10T16:56:46.127Z,100699.66
2022-09-10T16:59:20.255Z,100698.66
2022-09-10T17:01:48.800Z,100709.94
2022-09-10T17:04:21.302Z,100706.00
2022-09-10T17:06:51.158Z,100704.63
2022-09-10T17:09:18.093Z,100700.81
2022-09-10T17:11:45.673Z,100703.22
2022-09-10T17:14:12.590Z,100698.47
2022-09-10T17:16:41.950Z,100699.50
2022-09-10T17:19:19.511Z,100690.44
2022-09-10T17:21:51.349Z,100696.38
2022-09-10T17:24:21.218Z,100694.63
2022-09-10T17:26:48.442Z,100702.63
2022-09-10T17:29:22.618Z,100700.44
2022-09-10T17:31:55.192Z,100704.72
2022-09-10T17:34:24.413Z,100704.25
2022-09-10T17:36:51.399Z,100711.13
2022-09-10T17:39:18.466Z,100710.59
2022-09-10T17:41:45.891Z,100712.97
2022-09-10T17:44:13.516Z,100708.91
2022-09-10T17:46:42.581Z,100715.03
2022-09-10T17:49:14.035Z,100720.50
2022-09-10T17:51:41.889Z,100713.34
2022-09-10T17:54:08.766Z,100727.16
2022-09-10T17:56:37.874Z,100730.91
2022-09-10T17:59:05.892Z,100731.63
2022-09-10T18:01:39.112Z,100733.69
2022-09-10T18:04:07.891Z,100744.97
2022-09-10T18:06:38.329Z,100745.13
2022-09-10T18:09:06.514Z,100745.81
2022-09-10T18:11:39.423Z,100750.25
2022-09-10T18:14:07.194Z,100761.00
2022-09-10T18:16:36.260Z,100760.16
2022-09-10T18:19:13.718Z,100764.91
2022-09-10T18:21:43.627Z,100777.16
2022-09-10T18:24:14.325Z,100777.31
2022-09-10T18:26:44.748Z,100784.16
2022-09-10T18:29:23.001Z,100787.25
2022-09-10T18:31:54.085Z,100779.41
2022-09-10T18:34:24.622Z,100779.19
2022-09-10T18:36:54.345Z,100783.97
2022-09-10T18:39:23.169Z,100790.25
2022-09-10T18:41:50.324Z,100789.56
2022-09-10T18:44:31.284Z,100802.28
2022-09-10T18:46:58.411Z,100799.53
2022-09-10T18:49:26.391Z,100808.38
2022-09-10T18:51:55.204Z,100815.19
2022-09-10T18:54:25.424Z,100811.38
2022-09-10T18:56:53.244Z,100823.66
2022-09-10T18:59:23.069Z,100823.47
2022-09-10T19:01:53.235Z,100828.94
2022-09-10T19:04:23.729Z,100833.53
2022-09-10T19:06:51.038Z,100841.56
2022-09-10T19:09:21.732Z,100844.09
2022-09-10T19:11:50.887Z,100852.97
2022-09-10T19:14:21.861Z,100853.69
2022-09-10T19:16:51.115Z,100858.25
2022-09-10T19:19:27.505Z,100866.34
2022-09-10T19:22:03.345Z,100863.28
2022-09-10T19:24:53.410Z,100863.31
2022-09-10T19:27:19.671Z,100863.72
2022-09-10T19:29:47.397Z,100873.25
2022-09-10T19:32:15.137Z,100864.56
2022-09-10T19:34:42.720Z,100878.03
2022-09-10T19:37:09.959Z,100874.78
2022-09-10T19:39:36.922Z,100886.88
2022-09-10T19:42:05.647Z,100877.50
2022-09-10T19:44:33.730Z,100875.44
2022-09-10T19:47:00.899Z,100882.41
2022-09-10T19:49:27.812Z,100874.81
2022-09-10T19:51:54.822Z,100880.97
2022-09-10T19:54:22.723Z,100885.16
2022-09-10T19:56:50.145Z,100893.00
2022-09-10T19:59:17.693Z,100897.09
2022-09-10T20:01:46.079Z,100900.53
2022-09-10T20:04:14.354Z,100893.00
2022-09-10T20:06:46.100Z,100898.16
2022-09-10T20:09:13.620Z,100897.97
2022-09-10T20:11:41.061Z,100901.22
2022-09-10T20:14:13.151Z,100898.66
2022-09-10T20:16:43.632Z,100896.13
2022-09-10T20:19:14.827Z,100903.94
2022-09-10T20:21:42.222Z,100897.41
2022-09-10T20:24:09.563Z,100906.19
2022-09-10T20:26:38.433Z,100895.94
2022-09-10T20:29:12.312Z,100902.94
2022-09-10T20:31:41.473Z,100894.94
2022-09-10T20:34:13.076Z,100901.44
2022-09-10T20:36:43.735Z,100904.50
2022-09-10T20:39:14.547Z,100904.88
2022-09-10T20:41:42.686Z,100899.59
2022-09-10T20:44:14.319Z,100908.03
2022-09-10T20:46:42.342Z,100909.75
2022-09-10T20:49:12.090Z,100906.66
2022-09-10T20:51:40.645Z,100915.09
2022-09-10T20:54:11.959Z,100913.13
2022-09-10T20:56:39.339Z,100914.53
2022-09-10T20:59:06.260Z,100921.25
2022-09-10T21:01:33.491Z,100920.13
2022-09-10T21:04:03.962Z,100922.38
2022-09-10T21:06:32.975Z,100919.22
2022-09-10T21:09:01.031Z,100922.88
2022-09-10T21:11:31.500Z,100916.28
2022-09-10T21:14:01.927Z,100921.25
2022-09-10T21:16:41.338Z,100913.88
2022-09-10T21:19:14.961Z,100922.34
2022-09-10T21:21:44.916Z,100919.00
2022-09-10T21:24:18.899Z,100914.16
2022-09-10T21:26:46.740Z,100928.94
2022-09-10T21:29:19.465Z,100924.25
2022-09-10T21:31:47.912Z,100922.13
2022-09-10T21:34:15.211Z,100921.88
2022-09-10T21:36:43.657Z,100924.03
2022-09-10T21:39:17.134Z,100932.09
2022-09-10T21:41:47.421Z,100938.16
2022-09-10T21:44:18.405Z,100933.16
2022-09-10T21:46:46.619Z,100931.44
2022-09-10T21:49:14.422Z,100924.75
2022-09-10T21:51:42.042Z,100927.75
2022-09-10T21:54:15.146Z,100934.22
2022-09-10T21:56:42.096Z,100934.78
2022-09-10T21:59:12.206Z,100933.06
2022-09-10T22:01:42.143Z,100937.97
2022-09-10T22:04:09.471Z,100935.56
2022-09-10T22:06:36.499Z,100945.56
2022-09-10T22:09:10.802Z,100955.59
2022-09-10T22:11:42.425Z,100949.44
2022-09-10T22:14:16.080Z,100959.91
2022-09-10T22:16:44.042Z,100958.75
2022-09-10T22:19:15.455Z,100960.38
2022-09-10T22:21:42.420Z,100951.16
2022-09-10T22:24:11.546Z,100959.50
2022-09-10T22:26:44.357Z,100959.91
2022-09-10T22:29:12.763Z,100955.47
2022-09-10T22:31:39.783Z,100963.50
2022-09-10T22:34:13.675Z,100959.88
2022-09-10T22:36:44.158Z,100974.19
2022-09-10T22:39:20.336Z,100969.22
2022-09-10T22:41:50.043Z,100976.44
2022-09-10T22:44:18.639Z,100976.44
2022-09-10T22:46:45.941Z,100976.50
2022-09-10T22:49:15.945Z,100982.84
2022-09-10T22:51:43.317Z,100981.72
2022-09-10T22:54:11.104Z,100988.59
2022-09-10T22:56:39.538Z,100990.91
2022-09-10T22:59:07.359Z,100989.63
2022-09-10T23:01:37.529Z,101004.38
2022-09-10T23:04:07.061Z,101008.25
2022-09-10T23:06:37.014Z,101007.38
2022-09-10T23:09:12.243Z,101010.25
2022-09-10T23:11:40.391Z,101011.25
2022-09-10T23:14:12.980Z,101022.28
2022-09-10T23:16:48.421Z,101027.16
2022-09-10T23:19:24.769Z,101034.75
2022-09-10T23:21:55.108Z,101030.75
2022-09-10T23:24:24.855Z,101039.44
2022-09-10T23:26:52.333Z,101038.72
2022-09-10T23:29:20.547Z,101039.16
2022-09-10T23:31:47.889Z,101033.88
2022-09-10T23:34:19.775Z,101036.75
2022-09-10T23:36:48.912Z,101037.88
2022-09-10T23:39:20.063Z,101036.59
2022-09-10T23:41:53.500Z,101043.28
2022-09-10T23:44:20.667Z,101040.16
2022-09-10T23:46:48.025Z,101047.84
2022-09-10T23:49:15.935Z,101040.03
2022-09-10T23:51:43.003Z,101032.16
2022-09-10T23:54:10.970Z,101041.13
2022-09-10T23:56:39.257Z,101038.72
2022-09-10T23:59:06.326Z,101038.84
